Time;durP1;ratioP1;P1;durP2;ratioP2;P2;SDS_P1;SDS_P2;PMS_P1;PMS_P2;Temp;Humidity;BMP_temperature;BMP_pressure;BME280_temperature;BME280_humidity;BME280_pressure;Samples;Min_cycle;Max_cycle;Signal;HPM_P1;HPM_P2
2023/05/09 00:01:52;;;;;;;2.33;2.22;;;15.20;99.90;;;;;;5063258;28;20263;-72
2023/05/09 00:04:19;;;;;;;2.25;2.15;;;15.20;99.90;;;;;;5057255;28;20203;-72
2023/05/09 00:06:46;;;;;;;2.20;2.10;;;15.20;99.90;;;;;;5059036;28;20696;-72
2023/05/09 00:09:13;;;;;;;2.00;1.90;;;15.20;99.90;;;;;;5061030;28;20198;-72
2023/05/09 00:11:40;;;;;;;2.50;1.80;;;15.20;99.90;;;;;;5061500;28;20664;-72
2023/05/09 00:14:07;;;;;;;2.15;2.05;;;15.20;99.90;;;;;;5056493;28;20307;-70
2023/05/09 00:16:36;;;;;;;2.72;2.53;;;15.10;99.90;;;;;;5061390;28;20241;-71
2023/05/09 00:19:03;;;;;;;2.90;2.72;;;15.10;99.90;;;;;;5061953;28;20209;-72
2023/05/09 00:21:30;;;;;;;3.00;2.67;;;15.10;99.90;;;;;;5061912;28;20194;-72
2023/05/09 00:23:59;;;;;;;2.90;2.70;;;15.10;99.90;;;;;;5060854;28;20273;-71
2023/05/09 00:26:26;;;;;;;3.08;2.88;;;15.10;99.90;;;;;;5061301;28;20218;-71
2023/05/09 00:28:53;;;;;;;3.05;2.85;;;15.00;99.90;;;;;;5062758;28;20229;-72
2023/05/09 00:31:20;;;;;;;2.85;2.65;;;15.00;99.90;;;;;;5061373;28;20226;-72
2023/05/09 00:33:48;;;;;;;3.03;2.80;;;15.00;99.90;;;;;;5059594;28;20250;-73
2023/05/09 00:36:15;;;;;;;2.78;2.58;;;15.00;99.90;;;;;;5062029;28;20301;-72
2023/05/09 00:38:42;;;;;;;2.63;2.53;;;15.00;99.90;;;;;;5058516;28;20202;-73
2023/05/09 00:41:09;;;;;;;2.60;2.40;;;15.00;99.90;;;;;;5059346;28;20206;-72
2023/05/09 00:43:36;;;;;;;2.45;2.25;;;15.00;99.90;;;;;;5060468;28;21528;-72
2023/05/09 00:46:03;;;;;;;2.72;2.53;;;14.90;99.90;;;;;;5057945;28;20283;-72
2023/05/09 00:48:30;;;;;;;2.83;2.63;;;14.90;99.90;;;;;;5065460;28;20260;-71
2023/05/09 00:50:58;;;;;;;2.53;2.42;;;14.90;99.90;;;;;;5066937;28;20339;-71
2023/05/09 00:53:26;;;;;;;2.50;2.40;;;14.90;99.90;;;;;;5067059;28;20256;-73
2023/05/09 00:55:55;;;;;;;2.70;2.55;;;14.90;99.90;;;;;;5087924;28;20217;-71
2023/05/09 00:58:22;;;;;;;2.80;2.60;;;14.90;99.90;;;;;;5064541;28;20202;-71
2023/05/09 01:00:48;;;;;;;3.30;3.03;;;14.90;99.90;;;;;;5062965;28;20289;-72
2023/05/09 01:03:16;;;;;;;2.83;2.63;;;14.80;99.90;;;;;;5065289;28;20297;-71
2023/05/09 01:05:54;;;;;;;3.13;2.92;;;14.80;99.90;;;;;;5066041;28;20712;-73
2023/05/09 01:08:36;;;;;;;2.90;2.70;;;14.80;99.90;;;;;;5065783;28;20202;-73
2023/05/09 01:11:09;;;;;;;2.92;2.72;;;14.80;99.90;;;;;;5060938;28;20305;-72
2023/05/09 01:13:49;;;;;;;2.72;2.53;;;14.80;99.90;;;;;;5066235;28;20273;-72
2023/05/09 01:16:24;;;;;;;3.33;3.13;;;14.90;99.90;;;;;;5064799;28;20230;-72
2023/05/09 01:18:58;;;;;;;2.88;2.67;;;14.80;99.90;;;;;;5063188;28;20251;-71
2023/05/09 01:21:31;;;;;;;2.78;2.67;;;14.80;99.90;;;;;;5065879;28;20271;-72
2023/05/09 01:24:17;;;;;;;3.00;2.67;;;14.80;99.90;;;;;;5063471;28;20226;-71
2023/05/09 01:26:47;;;;;;;2.95;2.75;;;14.80;99.90;;;;;;5061738;28;20218;-72
2023/05/09 01:29:41;;;;;;;3.33;3.13;;;14.80;99.90;;;;;;5063748;28;20255;-71
2023/05/09 01:32:10;;;;;;;3.25;3.05;;;14.80;99.90;;;;;;5050402;28;20272;-74
2023/05/09 01:34:39;;;;;;;3.05;2.85;;;14.80;99.90;;;;;;5059768;28;20205;-71
2023/05/09 01:37:08;;;;;;;3.17;2.97;;;14.80;99.90;;;;;;5061162;28;20289;-75
2023/05/09 01:39:40;;;;;;;3.22;3.00;;;14.90;99.90;;;;;;5067201;28;20870;-70
2023/05/09 01:42:09;;;;;;;2.65;2.50;;;14.80;99.90;;;;;;5063887;28;20233;-70
2023/05/09 01:44:42;;;;;;;3.28;3.08;;;14.80;99.90;;;;;;5058804;28;20226;-72
2023/05/09 01:47:11;;;;;;;3.33;3.05;;;14.80;99.90;;;;;;5063479;28;20272;-73
2023/05/09 01:49:39;;;;;;;4.18;3.20;;;14.80;99.90;;;;;;5061643;28;20198;-72
2023/05/09 01:52:09;;;;;;;2.80;2.67;;;14.90;99.90;;;;;;5063478;28;20203;-71
2023/05/09 01:54:38;;;;;;;3.17;2.97;;;14.90;99.90;;;;;;5063370;28;20234;-71
2023/05/09 01:57:07;;;;;;;3.42;3.20;;;14.90;99.90;;;;;;5064232;28;20226;-72
2023/05/09 01:59:34;;;;;;;3.47;3.28;;;14.80;99.90;;;;;;5065014;28;20669;-72
2023/05/09 02:02:04;;;;;;;3.72;3.47;;;14.90;99.90;;;;;;5064967;28;20893;-72
2023/05/09 02:04:31;;;;;;;4.13;3.72;;;14.90;99.90;;;;;;5063963;28;20234;-70
2023/05/09 02:07:00;;;;;;;3.88;3.60;;;14.80;99.90;;;;;;5066416;28;20257;-72
2023/05/09 02:09:27;;;;;;;3.33;3.13;;;14.80;99.90;;;;;;5065745;28;20209;-71
2023/05/09 02:11:54;;;;;;;3.47;3.28;;;14.80;99.90;;;;;;5064312;28;20202;-72
2023/05/09 02:14:22;;;;;;;3.92;3.63;;;14.80;99.90;;;;;;5058587;28;20225;-72
2023/05/09 02:16:49;;;;;;;3.22;2.97;;;14.80;99.90;;;;;;5059261;28;20194;-72
2023/05/09 02:19:18;;;;;;;4.30;4.00;;;14.80;99.90;;;;;;5061477;28;20198;-70
2023/05/09 02:21:45;;;;;;;4.45;4.07;;;14.80;99.90;;;;;;5058767;28;20218;-72
2023/05/09 02:24:12;;;;;;;3.78;3.45;;;14.80;99.90;;;;;;5060001;28;20241;-71
2023/05/09 02:26:40;;;;;;;3.28;3.08;;;14.80;99.90;;;;;;5062395;28;20234;-72
2023/05/09 02:29:08;;;;;;;4.03;3.72;;;14.80;99.90;;;;;;5063819;28;20199;-73
2023/05/09 02:31:36;;;;;;;3.70;3.42;;;14.80;99.90;;;;;;5061439;28;20257;-70
2023/05/09 02:34:04;;;;;;;3.38;3.17;;;14.70;99.90;;;;;;5065905;28;20756;-71
2023/05/09 02:36:33;;;;;;;3.40;3.10;;;14.80;99.90;;;;;;5064531;28;20194;-72
2023/05/09 02:39:01;;;;;;;3.92;3.63;;;14.80;99.90;;;;;;5068748;28;20229;-71
2023/05/09 02:41:28;;;;;;;3.10;2.90;;;14.80;99.90;;;;;;5074352;28;20226;-74
2023/05/09 02:43:55;;;;;;;3.40;3.20;;;14.80;99.90;;;;;;5081860;28;20224;-71
2023/05/09 02:46:22;;;;;;;3.03;2.83;;;14.80;99.90;;;;;;5072106;28;20232;-71
2023/05/09 02:48:50;;;;;;;3.30;3.00;;;14.80;99.90;;;;;;5072622;28;20256;-73
2023/05/09 02:51:17;;;;;;;2.90;2.70;;;14.80;99.90;;;;;;5073802;28;20621;-72
2023/05/09 02:53:45;;;;;;;2.75;2.58;;;14.80;99.90;;;;;;5070087;28;20218;-73
2023/05/09 02:56:12;;;;;;;2.70;2.50;;;14.80;99.90;;;;;;5066361;28;20222;-73
2023/05/09 02:58:39;;;;;;;3.72;3.53;;;14.80;99.90;;;;;;5065032;28;20317;-73
2023/05/09 03:01:06;;;;;;;4.28;3.95;;;14.80;99.90;;;;;;5061555;28;20237;-72
2023/05/09 03:03:33;;;;;;;4.45;4.05;;;14.70;99.90;;;;;;5063157;28;20226;-71
2023/05/09 03:06:00;;;;;;;4.88;4.30;;;14.60;99.90;;;;;;5059384;28;20696;-72
2023/05/09 03:08:27;;;;;;;3.88;3.58;;;14.50;99.90;;;;;;5061202;28;20198;-74
2023/05/09 03:10:56;;;;;;;4.10;3.80;;;14.50;99.90;;;;;;5058023;28;20194;-72
2023/05/09 03:13:23;;;;;;;3.92;3.63;;;14.50;99.90;;;;;;5062916;28;20949;-72
2023/05/09 03:15:49;;;;;;;3.95;3.65;;;14.50;99.90;;;;;;5061199;28;20198;-72
2023/05/09 03:18:17;;;;;;;3.88;3.58;;;14.60;99.90;;;;;;5062892;28;20228;-73
2023/05/09 03:20:44;;;;;;;4.40;4.10;;;14.60;99.90;;;;;;5058170;28;20210;-73
2023/05/09 03:23:11;;;;;;;3.80;3.60;;;14.60;99.90;;;;;;5063421;28;20323;-73
2023/05/09 03:25:38;;;;;;;3.72;3.42;;;14.60;99.90;;;;;;5060701;28;20967;-72
2023/05/09 03:28:06;;;;;;;4.20;3.90;;;14.60;99.90;;;;;;5060008;28;20748;-72
2023/05/09 03:30:33;;;;;;;3.90;3.60;;;14.70;99.90;;;;;;5062379;28;20921;-72
2023/05/09 03:33:00;;;;;;;3.47;3.28;;;14.70;99.90;;;;;;5061579;28;20283;-71
2023/05/09 03:35:27;;;;;;;3.55;3.35;;;14.70;99.90;;;;;;5061757;28;20236;-71
2023/05/09 03:37:54;;;;;;;3.65;3.38;;;14.60;99.90;;;;;;5060427;28;20225;-71
2023/05/09 03:40:21;;;;;;;4.07;3.45;;;14.60;99.90;;;;;;5061805;28;20297;-70
2023/05/09 03:42:48;;;;;;;3.85;3.55;;;14.60;99.90;;;;;;5062626;28;20303;-72
2023/05/09 03:45:16;;;;;;;4.00;3.70;;;14.60;99.90;;;;;;5063272;28;20301;-72
2023/05/09 03:47:43;;;;;;;3.47;3.28;;;14.60;99.90;;;;;;5059806;28;20292;-71
2023/05/09 03:50:10;;;;;;;4.18;3.88;;;14.70;99.90;;;;;;5059441;28;20735;-72
2023/05/09 03:52:37;;;;;;;3.83;3.55;;;14.60;99.90;;;;;;5057923;28;20297;-72
2023/05/09 03:55:06;;;;;;;4.47;4.18;;;14.60;99.90;;;;;;5064637;28;20230;-71
2023/05/09 03:57:34;;;;;;;3.83;3.53;;;14.60;99.90;;;;;;5061237;28;20305;-72
2023/05/09 04:00:02;;;;;;;3.78;3.38;;;14.60;99.90;;;;;;5061755;28;20776;-72
2023/05/09 04:02:30;;;;;;;4.20;3.90;;;14.60;99.90;;;;;;5056987;28;20304;-73
2023/05/09 04:04:57;;;;;;;4.75;4.35;;;14.60;99.90;;;;;;5057585;28;20271;-72
2023/05/09 04:07:24;;;;;;;3.55;3.35;;;14.60;99.90;;;;;;5057879;28;20301;-72
2023/05/09 04:09:51;;;;;;;3.83;3.53;;;14.60;99.90;;;;;;5063800;28;20285;-72
2023/05/09 04:12:17;;;;;;;4.10;3.80;;;14.60;99.90;;;;;;5062039;28;20331;-72
2023/05/09 04:14:44;;;;;;;3.65;3.45;;;14.60;99.90;;;;;;5057735;28;20626;-71
2023/05/09 04:17:11;;;;;;;4.05;3.72;;;14.60;99.90;;;;;;5058828;28;20279;-71
2023/05/09 04:19:40;;;;;;;3.20;3.00;;;14.60;99.90;;;;;;5061380;28;20194;-72
2023/05/09 04:22:06;;;;;;;3.10;2.90;;;14.70;99.90;;;;;;5064183;28;20680;-72
2023/05/09 04:24:33;;;;;;;2.80;2.63;;;14.70;99.90;;;;;;5068033;28;20217;-72
2023/05/09 04:27:00;;;;;;;3.00;2.80;;;14.70;99.90;;;;;;5066830;28;20603;-73
2023/05/09 04:29:27;;;;;;;2.90;2.70;;;14.70;99.90;;;;;;5066557;28;20883;-73
2023/05/09 04:31:54;;;;;;;2.92;2.72;;;14.70;99.90;;;;;;5079115;28;20198;-70
2023/05/09 04:34:21;;;;;;;2.97;2.78;;;14.70;99.90;;;;;;5073307;28;20198;-72
2023/05/09 04:36:50;;;;;;;3.20;3.00;;;14.70;99.90;;;;;;5064870;28;20626;-71
2023/05/09 04:39:18;;;;;;;3.17;2.97;;;14.80;99.90;;;;;;5063845;28;20206;-72
2023/05/09 04:41:46;;;;;;;3.67;2.65;;;14.80;99.90;;;;;;5067101;28;20194;-71
2023/05/09 04:44:13;;;;;;;3.13;2.83;;;14.80;99.90;;;;;;5061597;28;20252;-72
2023/05/09 04:46:40;;;;;;;3.35;3.15;;;14.80;99.90;;;;;;5062754;28;20878;-73
2023/05/09 04:49:08;;;;;;;3.28;3.08;;;14.80;99.90;;;;;;5061041;28;20720;-72
2023/05/09 04:51:35;;;;;;;3.25;3.05;;;14.90;99.90;;;;;;5059865;28;20676;-71
2023/05/09 04:54:03;;;;;;;3.58;3.38;;;14.90;99.90;;;;;;5065499;28;20230;-72
2023/05/09 04:56:30;;;;;;;3.78;3.47;;;14.90;99.90;;;;;;5065461;28;20191;-72
2023/05/09 04:58:57;;;;;;;3.85;3.55;;;14.90;99.90;;;;;;5066125;28;20234;-71
2023/05/09 05:01:25;;;;;;;4.80;4.50;;;15.00;99.90;;;;;;5064621;28;20980;-71
2023/05/09 05:03:52;;;;;;;8.90;4.50;;;15.00;99.90;;;;;;5065900;28;20218;-72
2023/05/09 05:06:19;;;;;;;3.92;3.63;;;15.00;99.90;;;;;;5063125;28;20198;-71
2023/05/09 05:08:46;;;;;;;4.35;4.05;;;15.00;99.90;;;;;;5064367;28;20223;-73
2023/05/09 05:11:16;;;;;;;4.70;4.40;;;14.90;99.90;;;;;;5066681;28;20194;-72
2023/05/09 05:13:43;;;;;;;5.22;4.82;;;14.90;99.90;;;;;;5064769;28;20217;-72
2023/05/09 05:16:10;;;;;;;4.68;4.38;;;14.90;99.90;;;;;;5066270;28;20229;-72
2023/05/09 05:18:37;;;;;;;5.07;4.75;;;14.90;99.90;;;;;;5063711;28;20233;-71
2023/05/09 05:21:04;;;;;;;4.82;4.43;;;15.00;99.90;;;;;;5062648;28;20302;-71
2023/05/09 05:23:31;;;;;;;5.10;4.70;;;15.10;99.90;;;;;;5065889;28;20221;-72
2023/05/09 05:25:58;;;;;;;5.68;5.28;;;15.40;99.90;;;;;;5064359;28;20293;-72
2023/05/09 05:28:26;;;;;;;5.85;5.35;;;15.70;99.90;;;;;;5059522;28;20293;-72
2023/05/09 05:30:53;;;;;;;5.68;5.03;;;16.00;99.90;;;;;;5067627;28;20233;-74
2023/05/09 05:33:20;;;;;;;5.65;5.05;;;16.10;99.90;;;;;;5070275;28;20253;-74
2023/05/09 05:35:47;;;;;;;5.80;5.35;;;16.00;99.90;;;;;;5068379;28;20766;-73
2023/05/09 05:38:14;;;;;;;5.75;5.35;;;15.90;99.90;;;;;;5066331;28;20228;-74
2023/05/09 05:40:41;;;;;;;6.35;5.85;;;15.90;99.90;;;;;;5065009;28;21793;-74
2023/05/09 05:43:07;;;;;;;7.22;6.63;;;15.80;99.90;;;;;;5067828;28;20268;-75
2023/05/09 05:45:36;;;;;;;7.40;6.72;;;15.70;99.90;;;;;;5066546;28;20806;-74
2023/05/09 05:48:03;;;;;;;7.18;6.57;;;15.70;99.90;;;;;;5067864;28;20295;-74
2023/05/09 05:50:30;;;;;;;8.32;7.63;;;15.70;99.90;;;;;;5065725;28;20220;-73
2023/05/09 05:52:57;;;;;;;7.55;6.95;;;15.80;99.90;;;;;;5068702;28;20302;-73
2023/05/09 05:55:24;;;;;;;6.53;6.03;;;15.90;99.90;;;;;;5065476;28;20202;-74
2023/05/09 05:57:51;;;;;;;6.82;6.32;;;16.10;99.90;;;;;;5062927;28;20192;-74
2023/05/09 06:00:19;;;;;;;6.82;6.32;;;16.30;99.90;;;;;;5066237;28;20271;-73
2023/05/09 06:02:47;;;;;;;7.93;7.32;;;16.60;99.90;;;;;;5064536;28;20229;-72
2023/05/09 06:05:14;;;;;;;8.60;7.65;;;16.70;99.90;;;;;;5063112;28;20226;-74
2023/05/09 06:07:43;;;;;;;8.75;8.05;;;16.60;99.90;;;;;;5061571;28;20233;-71
2023/05/09 06:10:10;;;;;;;8.63;7.93;;;16.70;99.90;;;;;;5065726;28;20207;-72
2023/05/09 06:12:37;;;;;;;7.63;7.03;;;17.00;99.90;;;;;;5063545;28;20225;-73
2023/05/09 06:15:05;;;;;;;7.28;6.68;;;17.10;99.90;;;;;;5066299;28;20240;-73
2023/05/09 06:17:33;;;;;;;7.82;7.13;;;17.10;99.90;;;;;;5061074;28;20564;-74
2023/05/09 06:20:01;;;;;;;7.32;6.63;;;17.00;99.90;;;;;;5090150;28;20194;-74
2023/05/09 06:22:28;;;;;;;10.98;7.90;;;17.00;99.90;;;;;;5071256;28;20230;-73
2023/05/09 06:24:55;;;;;;;9.48;8.57;;;16.90;99.90;;;;;;5067028;28;20238;-72
2023/05/09 06:27:22;;;;;;;8.90;8.10;;;16.80;99.90;;;;;;5061819;28;20717;-73
2023/05/09 06:29:49;;;;;;;10.38;9.38;;;16.70;99.90;;;;;;5063592;28;20197;-73
2023/05/09 06:32:17;;;;;;;9.20;8.38;;;16.60;99.90;;;;;;5066701;28;20213;-73
2023/05/09 06:34:44;;;;;;;8.98;8.18;;;16.40;99.90;;;;;;5065107;28;20213;-73
2023/05/09 06:37:12;;;;;;;8.90;8.00;;;16.30;99.90;;;;;;5066320;28;20233;-72
2023/05/09 06:39:39;;;;;;;7.63;7.03;;;16.20;99.90;;;;;;5061558;28;20234;-72
2023/05/09 06:42:06;;;;;;;8.45;7.78;;;16.10;99.90;;;;;;5060633;28;20232;-71
2023/05/09 06:44:33;;;;;;;7.45;6.85;;;16.00;99.90;;;;;;5062573;28;20211;-72
2023/05/09 06:47:00;;;;;;;7.70;7.05;;;15.90;99.90;;;;;;5063247;28;20311;-74
2023/05/09 06:49:27;;;;;;;7.43;6.72;;;15.70;99.90;;;;;;5067190;28;20281;-73
2023/05/09 06:51:54;;;;;;;6.05;5.55;;;15.70;99.90;;;;;;5058863;28;20222;-72
2023/05/09 06:54:23;;;;;;;7.55;6.85;;;15.70;99.90;;;;;;5056951;28;20198;-73
2023/05/09 06:56:50;;;;;;;7.65;7.10;;;15.70;99.90;;;;;;5058495;28;20202;-72
2023/05/09 06:59:17;;;;;;;6.57;6.07;;;15.70;99.90;;;;;;5057900;28;20546;-72
2023/05/09 07:01:44;;;;;;;6.43;5.90;;;15.70;99.90;;;;;;5061737;28;20277;-73
2023/05/09 07:04:11;;;;;;;6.18;5.68;;;15.70;99.90;;;;;;5058905;28;20217;-72
2023/05/09 07:06:38;;;;;;;5.45;5.05;;;15.70;99.90;;;;;;5056836;28;20666;-72
2023/05/09 07:09:04;;;;;;;4.88;4.47;;;15.70;99.90;;;;;;5061153;28;20309;-72
2023/05/09 07:11:35;;;;;;;5.53;5.13;;;15.70;99.90;;;;;;5056996;28;20297;-72
2023/05/09 07:14:03;;;;;;;5.60;5.20;;;15.60;99.90;;;;;;5060532;28;20221;-72
2023/05/09 07:16:30;;;;;;;5.28;4.88;;;15.60;99.90;;;;;;5060307;28;20293;-73
2023/05/09 07:18:57;;;;;;;6.00;5.60;;;15.60;99.90;;;;;;5063175;28;20198;-72
2023/05/09 07:21:24;;;;;;;5.05;4.75;;;15.70;99.90;;;;;;5066244;28;20461;-72
2023/05/09 07:23:51;;;;;;;4.88;4.43;;;15.80;99.90;;;;;;5067946;28;20218;-73
2023/05/09 07:26:17;;;;;;;5.15;4.75;;;16.00;99.90;;;;;;5066527;28;20206;-73
2023/05/09 07:28:46;;;;;;;4.55;4.25;;;16.20;99.90;;;;;;5064113;28;20245;-73
2023/05/09 07:31:13;;;;;;;5.65;5.25;;;16.30;99.90;;;;;;5067409;28;20221;-72
2023/05/09 07:33:40;;;;;;;5.47;5.13;;;16.60;99.90;;;;;;5068561;28;20218;-73
2023/05/09 07:36:07;;;;;;;5.15;4.70;;;16.90;99.90;;;;;;5067315;28;20205;-73
2023/05/09 07:38:33;;;;;;;4.20;3.90;;;17.30;99.90;;;;;;5060331;28;20202;-73
2023/05/09 07:41:00;;;;;;;5.57;5.18;;;17.50;99.90;;;;;;5061640;28;20648;-72
2023/05/09 07:43:27;;;;;;;4.28;3.97;;;17.70;99.90;;;;;;5055832;28;20218;-73
2023/05/09 07:45:56;;;;;;;7.05;5.32;;;17.80;99.90;;;;;;5059134;28;20229;-73
2023/05/09 07:48:23;;;;;;;5.20;4.80;;;17.90;99.90;;;;;;5063260;28;20287;-74
2023/05/09 07:50:50;;;;;;;4.75;4.45;;;18.00;99.90;;;;;;5056640;28;20233;-73
2023/05/09 07:53:17;;;;;;;5.13;4.72;;;17.80;99.90;;;;;;5059021;28;20225;-73
2023/05/09 07:55:46;;;;;;;5.32;4.93;;;17.80;99.90;;;;;;5059524;28;20222;-75
2023/05/09 07:58:13;;;;;;;5.18;4.78;;;17.80;99.90;;;;;;5054620;28;20202;-73
2023/05/09 08:00:40;;;;;;;4.40;4.00;;;17.80;99.90;;;;;;5056652;28;20206;-73
2023/05/09 08:03:09;;;;;;;5.35;4.20;;;17.90;99.90;;;;;;5060460;28;20321;-73
2023/05/09 08:05:36;;;;;;;3.78;3.47;;;18.40;99.90;;;;;;5059730;28;20290;-74
2023/05/09 08:08:11;;;;;;;3.95;3.65;;;18.70;99.90;;;;;;5082013;28;20279;-80
2023/05/09 08:10:44;;;;;;;3.78;3.47;;;19.00;99.90;;;;;;5078641;28;20198;-77
2023/05/09 08:13:10;;;;;;;3.15;2.95;;;19.10;99.90;;;;;;5067474;28;20472;-75
2023/05/09 08:15:37;;;;;;;2.90;2.60;;;19.20;99.90;;;;;;5059665;28;20190;-74
2023/05/09 08:18:05;;;;;;;2.65;2.50;;;19.20;99.90;;;;;;5057468;28;20233;-73
2023/05/09 08:20:33;;;;;;;3.08;2.85;;;19.30;99.90;;;;;;5056752;28;20202;-72
2023/05/09 08:23:00;;;;;;;2.60;2.40;;;19.30;99.90;;;;;;5056115;28;20223;-73
2023/05/09 08:25:28;;;;;;;3.65;2.53;;;19.30;99.90;;;;;;5053488;28;20751;-72
2023/05/09 08:27:55;;;;;;;2.67;2.47;;;19.20;99.90;;;;;;5054319;28;20304;-73
2023/05/09 08:30:22;;;;;;;2.20;2.10;;;18.90;99.90;;;;;;5055597;28;20275;-71
2023/05/09 08:32:49;;;;;;;3.25;3.05;;;18.70;99.90;;;;;;5056606;28;20420;-73
2023/05/09 08:35:16;;;;;;;4.10;3.80;;;18.60;99.90;;;;;;5056705;28;20286;-72
2023/05/09 08:37:46;;;;;;;3.92;3.60;;;18.40;99.90;;;;;;5060343;28;20271;-71
2023/05/09 08:40:14;;;;;;;3.55;3.25;;;18.30;99.90;;;;;;5056662;28;20704;-71
2023/05/09 08:42:44;;;;;;;3.55;3.25;;;18.10;99.90;;;;;;5056491;28;20222;-74
2023/05/09 08:45:14;;;;;;;4.03;3.40;;;18.10;99.90;;;;;;5058382;28;20675;-72
2023/05/09 08:47:41;;;;;;;4.53;4.03;;;18.10;99.90;;;;;;5057417;28;20304;-72
2023/05/09 08:50:10;;;;;;;5.00;4.60;;;18.10;99.90;;;;;;5055998;28;20301;-72
2023/05/09 08:52:37;;;;;;;4.63;4.28;;;18.00;99.90;;;;;;5057901;28;20218;-71
2023/05/09 08:55:06;;;;;;;4.78;4.47;;;18.00;99.90;;;;;;5059488;28;20230;-73
2023/05/09 08:57:35;;;;;;;4.70;4.32;;;18.20;99.90;;;;;;5058196;28;20222;-73
2023/05/09 09:00:05;;;;;;;5.75;4.90;;;18.20;99.90;;;;;;5056102;28;20740;-73
2023/05/09 09:02:33;;;;;;;6.65;4.93;;;18.30;99.90;;;;;;5059885;28;20304;-73
2023/05/09 09:05:01;;;;;;;4.25;3.95;;;18.30;99.90;;;;;;5057238;28;20229;-72
2023/05/09 09:07:29;;;;;;;4.72;4.32;;;18.40;99.90;;;;;;5057195;28;20689;-72
2023/05/09 09:09:58;;;;;;;5.22;4.80;;;18.60;99.90;;;;;;5056960;28;20286;-72
2023/05/09 09:12:27;;;;;;;4.97;4.63;;;18.80;99.90;;;;;;5058643;28;20221;-72
2023/05/09 09:14:55;;;;;;;5.13;4.72;;;19.00;99.90;;;;;;5060047;28;20293;-71
2023/05/09 09:17:27;;;;;;;4.85;4.45;;;19.20;99.90;;;;;;5060815;28;20202;-72
2023/05/09 09:19:57;;;;;;;4.10;3.80;;;19.30;99.90;;;;;;5058282;28;20205;-72
2023/05/09 09:22:31;;;;;;;3.55;3.25;;;19.30;99.90;;;;;;5060306;28;21021;-72
2023/05/09 09:24:59;;;;;;;4.30;4.00;;;19.40;99.90;;;;;;5062161;28;20256;-73
2023/05/09 09:27:27;;;;;;;3.97;3.60;;;19.70;99.90;;;;;;5061005;28;20311;-73
2023/05/09 09:29:54;;;;;;;3.95;3.58;;;19.90;99.90;;;;;;5061366;28;20286;-72
2023/05/09 09:32:32;;;;;;;3.72;3.42;;;20.10;99.90;;;;;;5062207;28;20660;-71
2023/05/09 09:35:05;;;;;;;4.07;3.78;;;20.10;99.90;;;;;;5060826;28;20780;-72
2023/05/09 09:37:34;;;;;;;4.55;4.15;;;19.90;99.90;;;;;;5053242;28;20463;-71
2023/05/09 09:40:01;;;;;;;5.28;4.78;;;19.70;99.90;;;;;;5063033;28;20210;-74
2023/05/09 09:42:41;;;;;;;5.47;3.97;;;19.60;99.90;;;;;;5060023;28;20377;-72
2023/05/09 09:45:13;;;;;;;4.68;4.30;;;19.50;99.90;;;;;;5058531;28;20206;-74
2023/05/09 09:47:40;;;;;;;4.15;3.85;;;19.40;99.90;;;;;;5060833;28;20194;-71
2023/05/09 09:50:12;;;;;;;4.13;3.83;;;19.50;99.90;;;;;;5059085;28;20358;-74
2023/05/09 09:52:43;;;;;;;4.60;4.30;;;19.60;99.90;;;;;;5058855;28;20300;-73
2023/05/09 09:55:12;;;;;;;4.82;4.38;;;19.70;99.90;;;;;;5068118;28;20211;-72
2023/05/09 09:57:42;;;;;;;4.47;4.15;;;19.90;99.90;;;;;;5077196;28;20264;-74
2023/05/09 10:00:11;;;;;;;3.90;3.60;;;20.10;99.90;;;;;;5061283;28;20213;-72
2023/05/09 10:02:48;;;;;;;4.50;4.20;;;20.20;99.90;;;;;;5060227;28;20222;-72
2023/05/09 10:05:19;;;;;;;4.72;4.32;;;20.50;99.90;;;;;;5062108;28;20513;-73
2023/05/09 10:07:49;;;;;;;3.83;3.63;;;21.00;99.90;;;;;;5060417;28;20207;-72
2023/05/09 10:10:16;;;;;;;4.05;3.20;;;21.10;99.90;;;;;;5058412;28;20252;-73
2023/05/09 10:12:45;;;;;;;5.32;3.70;;;20.80;99.90;;;;;;5058877;28;20313;-73
2023/05/09 10:15:15;;;;;;;5.45;3.78;;;20.90;99.90;;;;;;5063223;28;20230;-72
2023/05/09 10:17:42;;;;;;;3.35;3.05;;;21.30;99.90;;;;;;5060070;28;20641;-72
2023/05/09 10:20:12;;;;;;;3.90;3.60;;;21.80;99.90;;;;;;5059857;28;21040;-72
2023/05/09 10:22:40;;;;;;;3.53;3.22;;;22.10;99.90;;;;;;5061367;28;20305;-73
2023/05/09 10:25:14;;;;;;;2.65;2.45;;;22.40;99.90;;;;;;5065948;28;20579;-72
2023/05/09 10:27:45;;;;;;;4.60;3.00;;;22.80;99.90;;;;;;5061342;28;20233;-71
2023/05/09 10:30:16;;;;;;;2.67;2.47;;;23.00;99.90;;;;;;5065639;28;20240;-72
2023/05/09 10:32:48;;;;;;;3.72;2.72;;;23.30;99.90;;;;;;5061142;28;20218;-72
2023/05/09 10:35:17;;;;;;;2.53;2.33;;;23.20;99.90;;;;;;5069133;28;20209;-72
2023/05/09 10:37:45;;;;;;;2.30;2.10;;;23.40;99.90;;;;;;5072448;28;20469;-73
2023/05/09 10:40:14;;;;;;;2.95;2.75;;;23.20;99.90;;;;;;5069775;28;20266;-71
2023/05/09 10:42:42;;;;;;;4.15;2.42;;;22.90;99.90;;;;;;5071782;28;20222;-73
2023/05/09 10:45:12;;;;;;;2.65;2.30;;;22.70;99.90;;;;;;5067941;28;20256;-74
2023/05/09 10:47:39;;;;;;;2.75;2.25;;;22.40;99.90;;;;;;5059144;28;20202;-73
2023/05/09 10:50:08;;;;;;;2.47;2.00;;;22.10;99.90;;;;;;5056410;28;20518;-71
2023/05/09 10:53:06;;;;;;;5.15;1.95;;;22.00;99.90;;;;;;5061059;28;20312;-73
2023/05/09 10:55:48;;;;;;;1.90;1.80;;;22.30;99.90;;;;;;5061128;28;20442;-73
2023/05/09 10:58:25;;;;;;;2.03;1.83;;;22.60;99.90;;;;;;5061013;28;20750;-72
2023/05/09 11:00:54;;;;;;;2.47;2.28;;;22.30;99.90;;;;;;5058840;28;20251;-72
2023/05/09 11:03:23;;;;;;;2.70;2.45;;;22.10;99.90;;;;;;5059404;28;20217;-71
2023/05/09 11:05:52;;;;;;;2.30;2.17;;;21.90;99.90;;;;;;5057057;28;20212;-72
2023/05/09 11:08:25;;;;;;;2.45;2.25;;;21.70;99.90;;;;;;5060833;28;20643;-72
2023/05/09 11:10:52;;;;;;;2.50;2.30;;;21.60;99.90;;;;;;5055729;28;20202;-72
2023/05/09 11:13:22;;;;;;;2.47;2.28;;;21.40;99.90;;;;;;5060238;28;20218;-72
2023/05/09 11:16:08;;;;;;;2.47;2.28;;;21.30;99.90;;;;;;5056779;28;20207;-71
2023/05/09 11:18:49;;;;;;;1.80;1.70;;;21.10;99.90;;;;;;5057783;28;20290;-71
2023/05/09 11:21:19;;;;;;;2.85;1.90;;;21.00;99.90;;;;;;5057141;28;20194;-71
2023/05/09 11:23:46;;;;;;;2.00;1.77;;;21.00;99.90;;;;;;5057381;28;20250;-72
2023/05/09 11:26:16;;;;;;;3.22;1.88;;;21.00;99.90;;;;;;5060393;28;20809;-73
2023/05/09 11:28:53;;;;;;;1.90;1.80;;;21.00;99.90;;;;;;5056530;28;20643;-71
2023/05/09 11:31:21;;;;;;;1.70;1.60;;;21.00;99.90;;;;;;5058313;28;20202;-71
2023/05/09 11:33:55;;;;;;;2.30;2.08;;;21.10;99.90;;;;;;5059855;28;20747;-72
2023/05/09 11:36:30;;;;;;;1.80;1.70;;;21.30;99.90;;;;;;5058842;28;20204;-72
2023/05/09 11:39:02;;;;;;;1.90;1.80;;;21.30;99.90;;;;;;5056579;28;20198;-71
2023/05/09 11:41:29;;;;;;;1.95;1.85;;;21.40;99.90;;;;;;5057029;28;20863;-73
2023/05/09 11:43:58;;;;;;;2.28;1.80;;;21.40;99.90;;;;;;5063139;28;20278;-75
2023/05/09 11:46:27;;;;;;;2.13;1.92;;;21.30;99.90;;;;;;5074656;28;20239;-72
2023/05/09 11:48:54;;;;;;;2.30;2.10;;;21.10;99.90;;;;;;5059916;28;20258;-71
2023/05/09 11:51:21;;;;;;;2.20;2.10;;;20.90;99.90;;;;;;5060365;28;20211;-72
2023/05/09 11:53:50;;;;;;;2.40;2.25;;;20.60;99.90;;;;;;5057130;28;20662;-72
2023/05/09 11:56:18;;;;;;;2.17;2.05;;;20.50;99.90;;;;;;5058495;28;20251;-73
2023/05/09 11:58:45;;;;;;;2.58;1.85;;;20.60;99.90;;;;;;5055938;28;20881;-72
2023/05/09 12:01:13;;;;;;;2.20;2.10;;;20.70;99.90;;;;;;5060274;28;20289;-76
2023/05/09 12:03:44;;;;;;;2.20;2.10;;;20.70;99.90;;;;;;5055942;28;20233;-72
2023/05/09 12:06:15;;;;;;;2.35;2.15;;;20.70;99.90;;;;;;5059785;28;20809;-73
2023/05/09 12:08:43;;;;;;;2.33;2.10;;;20.70;99.90;;;;;;5058458;28;20775;-72
2023/05/09 12:11:11;;;;;;;2.30;2.20;;;20.70;99.90;;;;;;5058893;28;20522;-72
2023/05/09 12:13:45;;;;;;;2.80;2.60;;;20.90;99.90;;;;;;5060401;28;20221;-72
2023/05/09 12:16:12;;;;;;;2.30;1.92;;;21.20;99.90;;;;;;5059446;28;20212;-72
2023/05/09 12:18:46;;;;;;;2.17;2.08;;;21.20;99.90;;;;;;5054450;28;20294;-72
2023/05/09 12:21:13;;;;;;;2.10;1.92;;;21.30;99.90;;;;;;5058824;28;20213;-73
2023/05/09 12:23:40;;;;;;;2.50;2.30;;;21.00;99.90;;;;;;5060317;28;20646;-72
2023/05/09 12:26:07;;;;;;;2.05;1.90;;;20.60;99.90;;;;;;5055230;28;20202;-70
2023/05/09 12:28:35;;;;;;;2.50;2.30;;;20.30;99.90;;;;;;5057980;28;20198;-73
2023/05/09 12:31:02;;;;;;;4.63;2.78;;;20.10;99.90;;;;;;5057608;28;20206;-71
2023/05/09 12:33:30;;;;;;;2.40;2.20;;;20.00;99.90;;;;;;5055356;28;21177;-71
2023/05/09 12:36:09;;;;;;;2.97;2.78;;;20.00;99.90;;;;;;5058282;28;20233;-70
2023/05/09 12:38:37;;;;;;;1.98;1.85;;;20.00;99.90;;;;;;5059740;28;20222;-72
2023/05/09 12:41:05;;;;;;;2.95;2.50;;;20.00;99.90;;;;;;5058896;28;20660;-73
2023/05/09 12:43:33;;;;;;;2.45;2.25;;;19.90;99.90;;;;;;5058349;28;20250;-72
2023/05/09 12:46:02;;;;;;;2.05;1.95;;;19.90;99.90;;;;;;5062055;28;20317;-72
2023/05/09 12:48:30;;;;;;;2.45;2.25;;;19.80;99.90;;;;;;5058070;28;20195;-72
2023/05/09 12:51:02;;;;;;;2.90;2.70;;;19.80;99.90;;;;;;5061780;28;20886;-72
2023/05/09 12:53:31;;;;;;;3.22;2.80;;;19.70;99.90;;;;;;5064065;28;20277;-71
2023/05/09 12:56:02;;;;;;;2.80;2.65;;;19.60;99.90;;;;;;5061535;28;20229;-72